Time;durP1;ratioP1;P1;durP2;ratioP2;P2;SDS_P1;SDS_P2;PMS_P1;PMS_P2;Temp;Humidity;BMP_temperature;BMP_pressure;BME280_temperature;BME280_humidity;BME280_pressure;Samples;Min_cycle;Max_cycle;Signal;HPM_P1;HPM_P2
2023/10/16 00:00:40;;;;;;;5.00;1.67;;;;;;;24.07;36.68;99986.91;4469197;32;33961;-66
2023/10/16 00:03:12;;;;;;;3.17;1.30;;;;;;;24.06;36.70;99982.50;4463107;32;34130;-64
2023/10/16 00:05:51;;;;;;;4.78;1.42;;;;;;;24.06;36.67;99995.28;4469287;32;34098;-63
2023/10/16 00:08:19;;;;;;;4.40;1.37;;;;;;;24.05;36.71;99999.91;4469405;32;33478;-63
2023/10/16 00:11:01;;;;;;;5.22;2.10;;;;;;;24.04;36.50;100002.87;4469351;32;33690;-64
2023/10/16 00:13:30;;;;;;;2.55;1.30;;;;;;;24.04;36.54;100006.41;4455531;32;33985;-65
2023/10/16 00:15:58;;;;;;;3.45;1.37;;;;;;;24.02;36.62;100014.00;4455290;32;33853;-63
2023/10/16 00:18:31;;;;;;;4.72;1.37;;;;;;;24.01;37.00;100017.75;4442847;32;33514;-65
2023/10/16 00:20:59;;;;;;;4.93;1.37;;;;;;;24.01;36.65;100015.03;4455856;32;33659;-67
2023/10/16 00:23:30;;;;;;;4.45;2.00;;;;;;;24.01;36.57;100011.47;4469152;32;34929;-63
2023/10/16 00:26:00;;;;;;;2.42;1.37;;;;;;;23.99;36.39;100017.16;4455502;32;34216;-64
2023/10/16 00:28:30;;;;;;;4.68;1.67;;;;;;;24.00;36.22;100020.72;4455552;32;34588;-63
2023/10/16 00:30:57;;;;;;;2.58;1.17;;;;;;;23.98;36.28;100009.22;4469179;32;34256;-63
2023/10/16 00:33:25;;;;;;;4.00;1.67;;;;;;;23.98;36.28;100017.41;4469357;32;33728;-63
2023/10/16 00:35:53;;;;;;;3.10;1.30;;;;;;;23.97;36.17;100023.87;4469243;32;33800;-63
2023/10/16 00:38:22;;;;;;;5.95;1.70;;;;;;;23.96;36.06;100014.88;4469152;32;33526;-65
2023/10/16 00:43:37;;;;;;;8.18;1.80;;;;;;;23.96;36.26;100011.31;4469064;32;34137;-66
2023/10/16 00:46:10;;;;;;;4.75;1.80;;;;;;;23.93;36.36;100010.72;4469194;32;34473;-66
2023/10/16 00:48:41;;;;;;;4.87;1.87;;;;;;;23.93;36.32;100015.34;4455815;32;33349;-65
2023/10/16 00:51:09;;;;;;;4.25;1.60;;;;;;;23.91;36.36;100012.84;4448833;32;34358;-67
2023/10/16 00:53:37;;;;;;;3.28;1.58;;;;;;;23.92;36.11;100014.53;4469016;32;34023;-63
2023/10/16 00:56:08;;;;;;;5.35;2.03;;;;;;;23.90;36.06;100018.50;4453334;32;33938;-65
2023/10/16 00:58:35;;;;;;;4.00;1.42;;;;;;;23.90;35.98;100021.25;4484805;32;34088;-64
2023/10/16 01:01:08;;;;;;;6.93;1.70;;;;;;;23.91;36.11;100022.91;4484706;32;34344;-63
2023/10/16 01:03:37;;;;;;;4.65;1.70;;;;;;;23.88;36.17;100009.75;4484623;32;34615;-66
2023/10/16 01:06:15;;;;;;;3.08;1.48;;;;;;;23.88;35.98;100007.03;4484682;32;33931;-64
2023/10/16 01:08:47;;;;;;;5.75;1.87;;;;;;;23.89;35.83;100009.50;4483935;32;34245;-63
2023/10/16 01:11:14;;;;;;;3.15;1.50;;;;;;;23.87;35.95;100014.34;4457721;32;33970;-62
2023/10/16 01:13:42;;;;;;;2.45;1.25;;;;;;;23.87;35.86;100019.78;4484735;32;33776;-65
2023/10/16 01:16:10;;;;;;;5.43;1.40;;;;;;;23.86;35.73;100015.41;4484607;32;34865;-64
2023/10/16 01:18:37;;;;;;;4.30;1.87;;;;;;;23.87;35.62;100027.13;4470525;32;34349;-65
2023/10/16 01:21:05;;;;;;;4.03;1.50;;;;;;;23.85;35.57;100026.53;4470989;31;34549;-64
2023/10/16 01:23:34;;;;;;;5.57;1.70;;;;;;;23.83;35.61;100018.59;4468793;32;33898;-65
2023/10/16 01:26:02;;;;;;;5.47;1.80;;;;;;;23.84;35.62;100028.44;4468938;32;33921;-64
2023/10/16 01:28:30;;;;;;;2.53;1.40;;;;;;;23.83;35.50;100026.75;4468536;32;34340;-64
2023/10/16 01:31:00;;;;;;;4.68;1.80;;;;;;;23.82;35.75;100025.06;4454710;32;34424;-65
2023/10/16 01:33:30;;;;;;;4.30;1.37;;;;;;;23.82;35.99;100026.97;4468875;32;33420;-65
2023/10/16 01:35:59;;;;;;;3.00;1.27;;;;;;;23.83;35.87;100039.56;4468737;32;34823;-65
2023/10/16 01:38:27;;;;;;;5.60;1.40;;;;;;;23.81;35.82;100039.75;4468886;32;33605;-67
2023/10/16 01:41:09;;;;;;;5.00;1.50;;;;;;;23.80;36.13;100045.44;4468663;32;33682;-64
2023/10/16 01:43:37;;;;;;;5.62;1.58;;;;;;;23.80;36.21;100049.00;4456167;32;34424;-66
2023/10/16 01:46:12;;;;;;;3.40;1.45;;;;;;;23.80;35.93;100050.91;4467494;32;33960;-65
2023/10/16 01:48:42;;;;;;;3.60;1.40;;;;;;;23.80;36.07;100045.44;4468355;32;34197;-64
2023/10/16 01:51:09;;;;;;;3.83;1.55;;;;;;;23.79;35.87;100046.50;4468732;32;34531;-65
2023/10/16 01:53:39;;;;;;;3.62;1.25;;;;;;;23.78;35.90;100040.22;4467433;32;33747;-67
2023/10/16 01:56:12;;;;;;;3.90;1.37;;;;;;;23.78;35.95;100040.22;4479723;32;33776;-64
2023/10/16 01:58:41;;;;;;;3.35;1.50;;;;;;;23.78;35.89;100040.22;4471009;32;32959;-67
2023/10/16 02:01:10;;;;;;;7.57;2.00;;;;;;;23.77;35.96;100046.72;4484501;32;33866;-65
2023/10/16 02:03:38;;;;;;;4.65;1.80;;;;;;;23.77;36.08;100054.88;4484122;32;35156;-64
2023/10/16 02:06:06;;;;;;;3.42;1.20;;;;;;;23.77;35.90;100056.78;4457193;32;35032;-66
2023/10/16 02:08:33;;;;;;;5.45;1.60;;;;;;;23.76;35.89;100061.41;4484238;32;33445;-65
2023/10/16 02:11:02;;;;;;;3.15;1.17;;;;;;;23.75;35.63;100067.09;4484183;32;33502;-66
2023/10/16 02:13:32;;;;;;;3.08;1.10;;;;;;;23.75;35.61;100065.19;4484224;32;34028;-66
2023/10/16 02:16:00;;;;;;;2.85;1.30;;;;;;;23.74;35.75;100068.97;4483987;32;33886;-64
2023/10/16 02:18:37;;;;;;;1.70;1.10;;;;;;;23.73;35.61;100070.00;4484140;32;34191;-64
2023/10/16 02:21:05;;;;;;;3.15;1.30;;;;;;;23.73;35.39;100075.44;4483792;32;33997;-63
2023/10/16 02:23:32;;;;;;;2.30;1.30;;;;;;;23.73;35.76;100085.53;4469757;32;34373;-63
2023/10/16 02:26:01;;;;;;;2.80;1.00;;;;;;;23.72;35.88;100094.75;4484313;32;34639;-64
2023/10/16 02:28:31;;;;;;;2.75;1.10;;;;;;;23.71;35.70;100102.09;4469902;32;34015;-64
2023/10/16 02:31:17;;;;;;;4.32;1.27;;;;;;;23.71;35.79;100096.66;4483786;32;34598;-64
2023/10/16 02:33:50;;;;;;;3.10;1.20;;;;;;;23.72;35.77;100101.03;4458484;32;35016;-63
2023/10/16 02:36:18;;;;;;;4.60;1.33;;;;;;;23.70;35.78;100095.00;4484132;32;33754;-64
2023/10/16 02:38:47;;;;;;;3.50;1.45;;;;;;;23.70;35.61;100094.16;4469835;32;34097;-64
2023/10/16 02:41:19;;;;;;;3.45;1.20;;;;;;;23.70;35.54;100096.88;4469844;32;33985;-64
2023/10/16 02:43:48;;;;;;;3.10;1.20;;;;;;;23.68;35.43;100088.91;4484052;32;33993;-63
2023/10/16 02:46:21;;;;;;;4.37;1.20;;;;;;;23.67;35.42;100088.06;4483760;32;34158;-64
2023/10/16 02:48:55;;;;;;;2.37;1.15;;;;;;;23.68;35.28;100078.00;4483472;32;33545;-64
2023/10/16 02:51:23;;;;;;;2.72;1.10;;;;;;;23.68;35.18;100070.66;4483632;32;34683;-66
2023/10/16 02:53:51;;;;;;;7.40;1.77;;;;;;;23.67;35.14;100076.34;4483678;32;33905;-64
2023/10/16 02:56:22;;;;;;;6.50;1.10;;;;;;;23.67;35.01;100079.91;4469314;32;33521;-65
2023/10/16 02:58:54;;;;;;;6.97;1.42;;;;;;;23.66;34.98;100082.84;4483610;32;33931;-67
2023/10/16 03:01:22;;;;;;;2.78;1.02;;;;;;;23.65;34.74;100083.94;4483328;32;33856;-63
2023/10/16 03:03:52;;;;;;;3.60;1.70;;;;;;;23.65;34.65;100087.47;4483803;32;33974;-66
2023/10/16 03:06:20;;;;;;;2.87;1.35;;;;;;;23.64;34.59;100085.81;4483539;32;33446;-65
2023/10/16 03:08:51;;;;;;;4.53;1.20;;;;;;;23.63;34.73;100094.16;4483272;32;33521;-64
2023/10/16 03:11:20;;;;;;;2.42;1.05;;;;;;;23.63;34.68;100102.31;4483704;32;34796;-63
2023/10/16 03:13:50;;;;;;;2.35;1.27;;;;;;;23.62;34.80;100104.22;4483462;32;34237;-63
2023/10/16 03:16:26;;;;;;;2.60;0.98;;;;;;;23.62;35.01;100106.94;4483641;32;33869;-65
2023/10/16 03:19:09;;;;;;;8.13;1.40;;;;;;;23.63;35.11;100110.50;4483373;32;34359;-64
2023/10/16 03:21:39;;;;;;;3.30;1.20;;;;;;;23.61;34.92;100116.19;4483116;32;33931;-65
2023/10/16 03:24:09;;;;;;;1.67;0.90;;;;;;;23.61;34.71;100118.06;4469440;32;34915;-66
2023/10/16 03:26:42;;;;;;;7.30;1.20;;;;;;;23.61;34.72;100116.19;4483319;32;34560;-65
2023/10/16 03:29:10;;;;;;;3.75;1.33;;;;;;;23.60;34.72;100105.50;4477010;32;33245;-63
2023/10/16 03:31:39;;;;;;;3.28;1.37;;;;;;;23.59;34.74;100107.38;4483371;32;34095;-66
2023/10/16 03:34:11;;;;;;;3.92;1.15;;;;;;;23.59;34.57;100112.00;4485222;32;33467;-63
2023/10/16 03:36:41;;;;;;;3.67;1.00;;;;;;;23.58;34.64;100122.06;4485379;32;34445;-66
2023/10/16 03:39:12;;;;;;;5.87;1.30;;;;;;;23.57;34.41;100128.56;4485274;32;33437;-64
2023/10/16 03:41:39;;;;;;;4.28;1.40;;;;;;;23.58;34.50;100138.41;4485224;32;33756;-64
2023/10/16 03:44:11;;;;;;;3.67;1.50;;;;;;;23.57;34.44;100139.47;4485289;32;33953;-66
2023/10/16 03:46:39;;;;;;;2.80;1.40;;;;;;;23.57;34.54;100150.34;4485066;32;34161;-65
2023/10/16 03:49:07;;;;;;;2.65;1.25;;;;;;;23.56;34.60;100145.97;4485053;32;33802;-65
2023/10/16 03:51:35;;;;;;;9.73;1.30;;;;;;;23.55;34.33;100147.03;4485268;32;33791;-64
2023/10/16 03:54:03;;;;;;;8.40;1.60;;;;;;;23.53;34.19;100142.84;4485348;32;33876;-67
2023/10/16 03:56:31;;;;;;;3.03;1.20;;;;;;;23.53;34.11;100142.84;4485095;32;33488;-64
2023/10/16 03:58:58;;;;;;;2.72;1.20;;;;;;;23.51;34.14;100137.62;4485152;32;33143;-66
2023/10/16 04:01:29;;;;;;;3.70;1.62;;;;;;;23.51;34.01;100137.62;4485035;32;33964;-67
2023/10/16 04:03:58;;;;;;;2.87;1.25;;;;;;;23.49;34.26;100126.09;4485195;32;34004;-65
2023/10/16 04:06:26;;;;;;;3.62;1.30;;;;;;;23.50;34.38;100127.78;4485118;32;33753;-65
2023/10/16 04:08:55;;;;;;;3.33;1.37;;;;;;;23.48;34.21;100127.16;4470789;32;33136;-63
2023/10/16 04:11:24;;;;;;;6.43;1.40;;;;;;;23.49;34.22;100128.00;4484961;32;33937;-64
2023/10/16 04:13:54;;;;;;;2.15;1.17;;;;;;;23.48;34.12;100126.31;4471004;32;33817;-65
2023/10/16 04:21:45;;;;;;;3.72;1.05;;;;;;;23.45;33.89;100124.03;4484962;32;33672;-63
2023/10/16 04:35:03;;;;;;;2.28;1.20;;;;;;;23.40;33.89;100119.25;4484781;32;33875;-65
2023/10/16 04:37:37;;;;;;;2.95;1.27;;;;;;;23.39;33.92;100117.56;4484782;32;34941;-64
2023/10/16 04:48:06;;;;;;;3.45;1.30;;;;;;;23.37;34.40;100130.59;4484958;32;34089;-64
2023/10/16 04:53:11;;;;;;;7.32;1.50;;;;;;;23.37;34.25;100125.97;4484695;32;34762;-65
2023/10/16 05:01:03;;;;;;;5.25;1.20;;;;;;;23.46;34.13;100123.84;4469245;32;34214;-66
2023/10/16 05:17:58;;;;;;;7.07;1.55;;;;;;;23.29;33.80;100117.22;4468790;32;34041;-64
2023/10/16 06:15:39;;;;;;;4.07;1.95;;;;;;;23.25;36.81;100184.88;4483978;32;33970;-63
2023/10/16 06:18:07;;;;;;;5.60;1.80;;;;;;;23.22;35.10;100193.47;4483859;32;34107;-63
2023/10/16 06:20:37;;;;;;;4.05;2.00;;;;;;;23.20;35.02;100187.41;4484108;32;32825;-67
2023/10/16 06:23:09;;;;;;;4.22;1.40;;;;;;;23.21;35.73;100190.97;4483596;32;33960;-70
2023/10/16 06:25:37;;;;;;;4.70;1.40;;;;;;;23.19;36.43;100188.47;4483745;32;34722;-65
2023/10/16 06:28:11;;;;;;;5.37;1.35;;;;;;;23.20;36.58;100197.47;4482946;32;33828;-63
2023/10/16 06:30:38;;;;;;;6.07;1.80;;;;;;;23.20;36.83;100198.31;4475386;32;34778;-72
2023/10/16 06:33:06;;;;;;;5.18;1.60;;;;;;;23.19;36.21;100202.09;4478386;32;35074;-71
2023/10/16 06:35:33;;;;;;;3.92;1.40;;;;;;;23.19;35.74;100204.81;4468530;32;33620;-70
2023/10/16 06:38:01;;;;;;;5.82;1.67;;;;;;;23.18;36.25;100203.13;4459355;32;33832;-72
2023/10/16 06:40:32;;;;;;;7.57;2.00;;;;;;;23.19;36.86;100203.97;4483897;32;34446;-65
2023/10/16 06:43:25;;;;;;;6.00;1.37;;;;;;;23.20;36.92;100211.91;4483768;32;33483;-70
2023/10/16 06:45:57;;;;;;;4.80;1.60;;;;;;;23.19;36.96;100209.41;4483833;32;34472;-63
2023/10/16 06:48:28;;;;;;;5.65;1.90;;;;;;;23.20;36.78;100221.97;4484074;32;33572;-66
2023/10/16 06:51:04;;;;;;;4.47;1.58;;;;;;;23.22;36.72;100226.13;4481239;32;33746;-67
2023/10/16 06:53:33;;;;;;;5.93;1.50;;;;;;;23.24;36.57;100236.81;4483699;32;33716;-71
2023/10/16 06:56:04;;;;;;;5.18;1.58;;;;;;;23.26;36.56;100242.88;4483441;32;33288;-71
2023/10/16 06:58:34;;;;;;;4.43;1.40;;;;;;;23.25;36.58;100244.78;4483705;32;33431;-70
2023/10/16 07:01:03;;;;;;;4.85;1.52;;;;;;;23.28;36.55;100251.69;4483633;32;33896;-64
2023/10/16 07:03:33;;;;;;;6.18;1.87;;;;;;;23.29;36.56;100251.47;4483351;32;34632;-67
2023/10/16 07:06:01;;;;;;;6.30;1.60;;;;;;;23.31;36.45;100252.06;4457258;32;33844;-68
2023/10/16 07:08:33;;;;;;;3.85;1.50;;;;;;;23.32;36.46;100263.81;4485011;32;32948;-71
2023/10/16 07:11:11;;;;;;;5.22;1.62;;;;;;;23.34;36.43;100272.59;4485641;32;33604;-71
2023/10/16 07:13:38;;;;;;;3.50;1.52;;;;;;;23.34;36.51;100264.44;4485435;32;34692;-63
2023/10/16 07:16:07;;;;;;;5.80;1.70;;;;;;;23.35;36.35;100264.22;4485365;32;33580;-71
2023/10/16 07:18:35;;;;;;;2.28;1.12;;;;;;;23.36;36.37;100265.03;4485485;32;33402;-65
2023/10/16 07:23:34;;;;;;;2.83;1.30;;;;;;;23.39;36.36;100270.91;4485197;32;34597;-63
2023/10/16 07:26:16;;;;;;;3.95;1.42;;;;;;;23.39;36.43;100265.47;4485299;32;33975;-64
2023/10/16 07:28:50;;;;;;;4.80;1.50;;;;;;;23.41;36.54;100268.81;4468571;32;33878;-62
2023/10/16 07:31:18;;;;;;;5.53;1.70;;;;;;;23.43;36.51;100271.31;4471908;32;34397;-63
2023/10/16 07:33:50;;;;;;;4.15;1.30;;;;;;;23.43;36.54;100268.59;4485529;32;33954;-62
2023/10/16 07:36:18;;;;;;;3.72;1.70;;;;;;;23.44;36.65;100272.97;4485347;32;33525;-65
2023/10/16 07:38:48;;;;;;;6.80;1.85;;;;;;;23.46;36.69;100276.34;4485359;32;33101;-67
2023/10/16 07:41:23;;;;;;;4.28;1.80;;;;;;;23.47;36.71;100280.72;4485062;32;34724;-68
2023/10/16 07:43:57;;;;;;;8.65;1.50;;;;;;;23.48;36.63;100284.28;4485187;32;33886;-72
2023/10/16 07:46:29;;;;;;;3.95;1.23;;;;;;;23.49;36.64;100297.69;4485230;32;34731;-71
2023/10/16 07:49:01;;;;;;;4.37;1.92;;;;;;;23.50;36.62;100298.50;4485135;32;34341;-64
2023/10/16 07:51:52;;;;;;;4.10;1.20;;;;;;;23.50;36.64;100295.78;4485085;32;34741;-70
2023/10/16 07:54:21;;;;;;;3.83;1.50;;;;;;;23.52;36.58;100297.25;4485210;32;34016;-67
2023/10/16 07:56:50;;;;;;;2.92;1.25;;;;;;;23.51;36.49;100295.59;4485137;32;34730;-72
2023/10/16 07:59:21;;;;;;;3.83;1.40;;;;;;;23.50;36.14;100291.22;4485475;32;33574;-64
2023/10/16 08:01:49;;;;;;;3.37;1.35;;;;;;;23.50;35.68;100288.47;4485158;32;34326;-62
2023/10/16 08:06:52;;;;;;;5.55;1.50;;;;;;;23.47;35.50;100294.34;4485017;32;34196;-63
2023/10/16 08:11:57;;;;;;;4.90;1.40;;;;;;;23.43;35.28;100287.66;4485030;32;33902;-72
2023/10/16 08:14:26;;;;;;;4.12;1.40;;;;;;;23.41;35.43;100281.59;4485162;32;33912;-69
2023/10/16 08:16:58;;;;;;;3.55;1.33;;;;;;;23.39;35.53;100278.25;4485093;32;34595;-72
2023/10/16 08:19:31;;;;;;;2.95;1.30;;;;;;;23.39;35.54;100278.25;4485020;32;32975;-64
2023/10/16 08:22:02;;;;;;;2.67;1.17;;;;;;;23.37;35.48;100278.47;4469218;32;34612;-62
2023/10/16 08:24:31;;;;;;;4.05;1.50;;;;;;;23.37;35.63;100283.06;4469111;32;34533;-63
2023/10/16 08:27:11;;;;;;;5.18;1.48;;;;;;;23.36;35.49;100281.37;4477874;31;33446;-62
2023/10/16 08:29:50;;;;;;;4.45;1.25;;;;;;;23.31;35.67;100281.19;4500717;31;33404;-65
2023/10/16 08:35:09;;;;;;;3.83;1.52;;;;;;;23.32;35.58;100288.34;4468998;32;33883;-65
2023/10/16 08:37:41;;;;;;;3.50;1.42;;;;;;;23.30;35.57;100287.69;4479140;32;33815;-62
2023/10/16 08:40:23;;;;;;;4.65;1.37;;;;;;;23.28;35.64;100290.63;4471037;32;34228;-62
2023/10/16 08:43:00;;;;;;;4.05;1.42;;;;;;;23.28;35.67;100285.19;4469134;32;34765;-62
2023/10/16 08:45:29;;;;;;;3.83;1.50;;;;;;;23.27;35.65;100286.25;4480869;32;34805;-62
2023/10/16 08:48:05;;;;;;;3.95;1.40;;;;;;;23.28;35.71;100292.53;4457952;32;34567;-62
2023/10/16 08:50:42;;;;;;;3.87;1.27;;;;;;;23.27;35.58;100296.28;4483762;32;33470;-62
2023/10/16 08:56:12;;;;;;;3.05;1.20;;;;;;;23.25;35.65;100293.78;4454956;32;33881;-62
2023/10/16 08:58:41;;;;;;;4.20;1.58;;;;;;;23.25;35.55;100287.50;4470821;32;34082;-63
2023/10/16 09:01:09;;;;;;;3.12;1.42;;;;;;;23.26;35.46;100278.28;4484946;32;33491;-72
2023/10/16 09:03:57;;;;;;;5.22;1.37;;;;;;;23.23;35.37;100282.28;4483228;32;33761;-72
2023/10/16 09:06:24;;;;;;;3.08;1.50;;;;;;;23.22;35.27;100277.84;4458775;32;33876;-64
2023/10/16 09:08:58;;;;;;;4.62;1.30;;;;;;;23.22;35.28;100287.91;4468862;32;33469;-69
2023/10/16 09:11:26;;;;;;;2.35;0.95;;;;;;;23.20;35.35;100282.69;4484684;32;33447;-71
2023/10/16 09:13:54;;;;;;;3.00;1.10;;;;;;;23.21;35.12;100287.09;4484517;32;34858;-68
2023/10/16 09:16:30;;;;;;;2.75;1.17;;;;;;;23.19;35.20;100278.31;4484662;32;34168;-68
2023/10/16 09:19:02;;;;;;;2.58;1.30;;;;;;;23.20;35.21;100290.88;4484723;32;33615;-71
2023/10/16 09:21:30;;;;;;;3.92;1.40;;;;;;;23.19;35.26;100282.91;4484600;32;34353;-71
2023/10/16 09:24:00;;;;;;;3.50;1.48;;;;;;;23.19;35.28;100294.63;4484453;32;34885;-66
2023/10/16 09:26:38;;;;;;;2.80;1.20;;;;;;;23.19;35.30;100299.25;4470764;32;33512;-65
2023/10/16 09:29:13;;;;;;;2.97;1.50;;;;;;;23.16;35.29;100295.88;4484481;32;33819;-68
2023/10/16 09:31:43;;;;;;;6.40;1.27;;;;;;;23.18;35.23;100298.41;4469909;32;33006;-70
2023/10/16 09:34:17;;;;;;;2.65;1.10;;;;;;;23.17;35.19;100297.59;4470724;32;34738;-62
2023/10/16 09:37:14;;;;;;;3.55;1.20;;;;;;;23.16;35.18;100287.72;4484508;32;34991;-63
2023/10/16 09:39:40;;;;;;;1.80;1.00;;;;;;;23.15;35.14;100288.78;4484499;32;33681;-70
2023/10/16 09:42:14;;;;;;;3.22;1.08;;;;;;;23.16;35.10;100276.84;4484605;32;33433;-70
2023/10/16 09:44:56;;;;;;;5.28;1.23;;;;;;;23.14;35.17;100270.78;4467275;32;33724;-64
2023/10/16 09:47:27;;;;;;;2.33;1.33;;;;;;;23.13;35.07;100271.00;4468924;32;34843;-71
2023/10/16 09:49:57;;;;;;;2.65;1.30;;;;;;;23.14;35.12;100270.78;4454720;32;34107;-71
2023/10/16 09:52:30;;;;;;;6.47;1.58;;;;;;;23.13;34.94;100263.66;4472522;32;33723;-67
2023/10/16 09:54:59;;;;;;;4.45;1.27;;;;;;;23.12;35.02;100261.97;4466919;32;33703;-64
2023/10/16 09:57:30;;;;;;;5.12;1.27;;;;;;;23.12;34.96;100253.81;4466352;32;34131;-64
2023/10/16 10:00:23;;;;;;;2.28;1.10;;;;;;;23.11;34.99;100254.88;4482947;32;33821;-64
2023/10/16 10:02:51;;;;;;;3.25;1.27;;;;;;;23.11;35.01;100263.03;4468332;32;33487;-65
2023/10/16 10:05:22;;;;;;;2.42;1.08;;;;;;;23.12;34.98;100259.25;4461822;32;34049;-67
2023/10/16 10:07:50;;;;;;;2.90;1.25;;;;;;;23.11;34.99;100254.88;4467300;32;34863;-62
2023/10/16 10:13:10;;;;;;;4.05;1.10;;;;;;;23.09;34.99;100251.53;4455790;32;33297;-63
2023/10/16 10:15:39;;;;;;;2.78;1.10;;;;;;;23.09;35.02;100256.97;4467048;32;33583;-62
2023/10/16 10:20:59;;;;;;;4.07;1.42;;;;;;;23.08;34.92;100246.28;4471714;32;33835;-69
2023/10/16 10:23:27;;;;;;;2.33;1.10;;;;;;;23.06;35.01;100254.66;4478657;32;34189;-69
2023/10/16 10:25:54;;;;;;;4.35;1.00;;;;;;;23.07;35.00;100250.06;4484100;32;33481;-68
2023/10/16 10:28:25;;;;;;;3.75;1.40;;;;;;;23.07;34.91;100245.44;4484163;32;33816;-67
2023/10/16 10:30:55;;;;;;;4.25;1.02;;;;;;;23.07;34.94;100240.00;4483832;32;33869;-62
2023/10/16 10:33:42;;;;;;;2.40;1.10;;;;;;;23.06;34.88;100243.78;4457356;32;33606;-63
2023/10/16 10:36:33;;;;;;;3.85;1.60;;;;;;;23.08;34.91;100235.41;4483887;32;33800;-63
2023/10/16 10:42:04;;;;;;;3.35;1.17;;;;;;;23.06;34.98;100222.00;4468238;32;34040;-62
2023/10/16 10:44:32;;;;;;;4.05;1.37;;;;;;;23.03;34.91;100216.16;4442730;32;33646;-62
2023/10/16 10:47:05;;;;;;;2.50;1.10;;;;;;;23.03;34.91;100211.53;4468119;32;33842;-68
2023/10/16 10:49:33;;;;;;;3.12;1.27;;;;;;;23.04;34.89;100212.41;4467966;32;34851;-63
2023/10/16 10:52:05;;;;;;;2.90;1.10;;;;;;;23.04;34.92;100209.69;4454097;32;33546;-62
2023/10/16 10:54:49;;;;;;;2.60;1.10;;;;;;;23.04;34.91;100202.34;4461619;32;33311;-62
2023/10/16 10:57:17;;;;;;;4.12;1.50;;;;;;;23.04;34.94;100204.25;4471254;32;34731;-64
2023/10/16 10:59:54;;;;;;;2.78;1.10;;;;;;;23.02;34.91;100201.72;4483614;32;34184;-62
2023/10/16 11:02:48;;;;;;;3.70;1.20;;;;;;;23.03;34.94;100199.81;4483461;32;34091;-63
2023/10/16 11:05:22;;;;;;;2.40;1.20;;;;;;;23.03;34.95;100187.03;4477446;32;34357;-62
2023/10/16 11:10:46;;;;;;;1.85;0.93;;;;;;;23.04;35.04;100180.56;4483714;32;34110;-63
2023/10/16 11:13:15;;;;;;;3.75;1.30;;;;;;;23.03;35.01;100178.88;4475577;32;33725;-62
2023/10/16 11:15:52;;;;;;;4.12;1.20;;;;;;;23.02;35.00;100182.66;4474107;32;33513;-61
2023/10/16 11:18:22;;;;;;;2.78;1.40;;;;;;;23.01;34.99;100183.72;4483389;32;34861;-64
2023/10/16 11:20:52;;;;;;;4.07;1.30;;;;;;;23.01;34.97;100185.59;4483320;32;33980;-67
2023/10/16 11:23:25;;;;;;;6.62;1.37;;;;;;;23.01;34.92;100188.31;4469337;32;33193;-62
2023/10/16 11:25:54;;;;;;;3.75;1.25;;;;;;;23.00;34.89;100173.88;4469460;32;33275;-63
2023/10/16 11:28:28;;;;;;;4.62;1.33;;;;;;;23.00;34.83;100173.88;4483190;32;33852;-64
2023/10/16 11:30:57;;;;;;;3.28;1.12;;;;;;;23.01;34.87;100174.72;4470509;32;34187;-63
2023/10/16 11:33:45;;;;;;;3.75;1.40;;;;;;;22.99;34.83;100172.22;4467335;32;34567;-62
2023/10/16 11:36:16;;;;;;;2.83;1.10;;;;;;;23.00;34.84;100178.50;4467317;32;34052;-62
2023/10/16 11:38:44;;;;;;;1.70;0.80;;;;;;;23.00;34.78;100173.06;4469493;32;33472;-67
2023/10/16 11:41:16;;;;;;;1.70;1.00;;;;;;;22.99;34.87;100179.53;4482760;32;33986;-70
2023/10/16 11:43:51;;;;;;;3.05;1.30;;;;;;;22.99;34.78;100177.66;4482889;32;34684;-69
2023/10/16 11:46:33;;;;;;;3.42;1.20;;;;;;;22.98;34.80;100178.69;4480917;32;34348;-62
2023/10/16 11:51:55;;;;;;;2.33;1.17;;;;;;;22.98;34.79;100170.53;4467006;32;34162;-70
2023/10/16 11:54:23;;;;;;;2.83;1.15;;;;;;;22.97;34.84;100168.84;4461657;32;33565;-67
2023/10/16 11:57:13;;;;;;;3.05;1.05;;;;;;;22.98;34.84;100166.97;4466159;32;34179;-66
2023/10/16 11:59:41;;;;;;;2.87;1.40;;;;;;;22.98;34.82;100161.53;4463750;32;34049;-67
2023/10/16 12:02:12;;;;;;;2.60;1.05;;;;;;;22.98;34.82;100170.53;4469585;32;33948;-64
2023/10/16 12:04:41;;;;;;;2.40;1.12;;;;;;;22.97;34.78;100170.75;4469838;32;33689;-69
2023/10/16 12:07:09;;;;;;;2.03;1.00;;;;;;;22.98;34.77;100169.69;4484912;32;33595;-66
2023/10/16 12:09:37;;;;;;;2.85;1.12;;;;;;;22.97;34.71;100166.13;4478684;32;33967;-70
2023/10/16 12:12:07;;;;;;;3.45;1.00;;;;;;;22.97;34.68;100163.41;4473787;32;34382;-68
2023/10/16 12:14:37;;;;;;;3.10;1.15;;;;;;;22.96;34.64;100161.75;4467495;32;34761;-66
2023/10/16 12:17:06;;;;;;;2.37;1.17;;;;;;;22.97;34.65;100168.84;4468771;32;33464;-67
2023/10/16 12:19:34;;;;;;;1.98;1.05;;;;;;;22.98;34.63;100161.53;4469310;32;34267;-70
2023/10/16 12:22:02;;;;;;;2.58;1.23;;;;;;;22.97;34.62;100148.97;4468554;32;33741;-63
2023/10/16 12:24:29;;;;;;;2.60;1.12;;;;;;;22.96;34.63;100153.59;4468975;32;34191;-69
2023/10/16 12:26:57;;;;;;;3.00;1.25;;;;;;;22.95;34.59;100154.66;4483629;32;34811;-65
2023/10/16 12:29:25;;;;;;;2.70;1.48;;;;;;;22.96;34.59;100156.31;4481851;32;33789;-64
2023/10/16 12:31:54;;;;;;;3.25;1.00;;;;;;;22.96;34.53;100155.47;4468512;32;34938;-66
2023/10/16 12:34:23;;;;;;;1.77;0.83;;;;;;;22.95;34.52;100157.38;4477382;32;33792;-72
2023/10/16 12:36:51;;;;;;;3.08;1.37;;;;;;;22.96;34.53;100160.91;4484804;32;33080;-63
2023/10/16 12:39:25;;;;;;;1.52;1.05;;;;;;;22.97;34.52;100152.53;4472125;32;33371;-66
2023/10/16 12:41:53;;;;;;;2.58;1.00;;;;;;;22.95;34.55;100149.22;4455680;32;34626;-66
2023/10/16 12:44:25;;;;;;;3.63;1.10;;;;;;;22.94;34.58;100147.50;4468569;32;33477;-69
2023/10/16 12:46:53;;;;;;;2.55;1.17;;;;;;;22.95;34.56;100149.22;4468935;32;34373;-63
2023/10/16 12:49:21;;;;;;;3.97;1.40;;;;;;;22.94;34.57;100144.78;4473987;32;33983;-66
2023/10/16 12:51:49;;;;;;;1.83;1.00;;;;;;;22.94;34.56;100155.66;4468902;32;34742;-69
2023/10/16 12:54:19;;;;;;;2.85;1.00;;;;;;;22.94;34.53;100155.66;4468493;32;34685;-63
2023/10/16 12:56:48;;;;;;;3.00;1.12;;;;;;;22.94;34.53;100147.50;4467885;32;34845;-68
2023/10/16 12:59:15;;;;;;;2.28;1.20;;;;;;;22.94;34.56;100155.66;4460168;31;34165;-69
2023/10/16 13:01:45;;;;;;;2.28;1.17;;;;;;;22.94;34.56;100154.84;4500282;31;34875;-67
2023/10/16 13:04:13;;;;;;;;;;;;;;;22.94;34.55;100150.22;4472211;32;33110;-66
2023/10/16 13:06:43;;;;;;;4.15;1.35;;;;;;;23.03;34.40;100145.37;4481441;32;33725;-63
2023/10/16 13:09:15;;;;;;;;;;;;;;;22.97;34.53;100148.97;4470690;32;33727;-72
2023/10/16 13:11:45;;;;;;;3.80;1.02;;;;;;;23.02;34.41;100150.00;4457751;32;34075;-69
2023/10/16 13:14:12;;;;;;;2.50;1.10;;;;;;;22.94;34.49;100138.50;4451940;32;34126;-64
2023/10/16 13:16:40;;;;;;;2.50;1.05;;;;;;;22.92;34.49;100142.28;4472677;32;33495;-63
2023/10/16 13:19:11;;;;;;;3.22;1.50;;;;;;;22.91;34.50;100143.34;4477263;32;34398;-68
2023/10/16 13:21:41;;;;;;;4.07;1.37;;;;;;;22.90;34.45;100138.97;4497015;31;33876;-62
2023/10/16 13:24:11;;;;;;;1.85;0.98;;;;;;;22.91;34.41;100140.62;4494078;31;33856;-62
2023/10/16 13:26:39;;;;;;;3.10;1.27;;;;;;;22.92;34.54;100145.00;4468635;32;33363;-62
2023/10/16 13:29:13;;;;;;;5.25;1.65;;;;;;;22.97;34.74;100144.38;4468841;32;33837;-62
2023/10/16 13:31:41;;;;;;;3.15;1.25;;;;;;;22.98;35.79;100137.03;4455481;32;34161;-62
2023/10/16 13:34:13;;;;;;;4.30;1.35;;;;;;;23.06;35.91;100128.63;4462284;32;33318;-62
2023/10/16 13:36:56;;;;;;;3.80;1.40;;;;;;;23.20;35.71;100134.84;4474620;32;33429;-61
2023/10/16 13:39:24;;;;;;;5.00;1.25;;;;;;;23.35;35.50;100136.22;4495225;31;33377;-62
2023/10/16 13:41:53;;;;;;;3.10;1.20;;;;;;;23.52;35.29;100139.28;4471662;32;34025;-62
2023/10/16 13:44:24;;;;;;;3.92;1.23;;;;;;;23.68;35.14;100140.66;4454773;32;33398;-63
2023/10/16 13:46:53;;;;;;;3.05;1.20;;;;;;;23.80;35.03;100133.47;4468588;32;34126;-63
2023/10/16 13:49:23;;;;;;;2.65;1.40;;;;;;;23.95;34.90;100132.31;4468756;32;33839;-62
2023/10/16 13:51:54;;;;;;;3.65;1.23;;;;;;;24.08;34.80;100134.94;4468390;32;33606;-70
2023/10/16 13:54:24;;;;;;;4.00;1.58;;;;;;;24.24;34.65;100134.34;4468758;32;33386;-70
2023/10/16 13:56:52;;;;;;;6.43;1.70;;;;;;;24.31;34.68;100128.84;4469407;32;33089;-70